createdAt,value
2022-11-15T00:01:17.930Z,100898.00
2022-11-15T00:03:46.948Z,100906.88
2022-11-15T00:06:16.524Z,100907.75
2022-11-15T00:08:44.677Z,100910.34
2022-11-15T00:11:14.420Z,100913.81
2022-11-15T00:13:42.645Z,100913.72
2022-11-15T00:16:11.426Z,100913.59
2022-11-15T00:18:39.960Z,100916.19
2022-11-15T00:21:09.500Z,100911.56
2022-11-15T00:23:39.242Z,100905.28
2022-11-15T00:26:08.459Z,100897.25
2022-11-15T00:28:36.648Z,100894.50
2022-11-15T00:31:05.342Z,100901.59
2022-11-15T00:33:34.199Z,100897.19
2022-11-15T00:36:03.558Z,100898.91
2022-11-15T00:38:33.956Z,100888.19
2022-11-15T00:41:09.124Z,100889.84
2022-11-15T00:43:38.351Z,100882.69
2022-11-15T00:46:06.711Z,100886.16
2022-11-15T00:48:34.859Z,100890.56
2022-11-15T00:51:03.071Z,100890.44
2022-11-15T00:53:31.538Z,100884.13
2022-11-15T00:55:59.953Z,100882.22
2022-11-15T00:58:29.452Z,100874.03
2022-11-15T01:00:57.693Z,100872.16
2022-11-15T01:03:25.856Z,100866.66
2022-11-15T01:05:54.000Z,100870.16
2022-11-15T01:08:22.136Z,100873.66
2022-11-15T01:10:50.278Z,100878.06
2022-11-15T01:13:18.444Z,100870.91
2022-11-15T01:15:47.951Z,100871.69
2022-11-15T01:18:16.086Z,100871.63
2022-11-15T01:20:44.917Z,100871.63
2022-11-15T01:23:13.089Z,100871.63
2022-11-15T01:25:41.211Z,100874.31
2022-11-15T01:28:09.445Z,100881.41
2022-11-15T01:30:38.315Z,100872.50
2022-11-15T01:33:07.929Z,100860.91
2022-11-15T01:35:40.059Z,100862.66
2022-11-15T01:38:08.243Z,100863.59
2022-11-15T01:40:36.541Z,100857.28
2022-11-15T01:43:23.059Z,100868.06
2022-11-15T01:45:54.426Z,100858.31
2022-11-15T01:48:27.889Z,100844.13
2022-11-15T01:50:56.206Z,100860.19
2022-11-15T01:53:26.542Z,100845.94
2022-11-15T01:55:54.763Z,100842.38
2022-11-15T01:58:22.959Z,100846.88
2022-11-15T02:00:51.733Z,100840.69
2022-11-15T02:03:19.917Z,100842.56
2022-11-15T02:05:49.506Z,100832.81
2022-11-15T02:08:21.103Z,100840.03
2022-11-15T02:10:49.484Z,100831.22
2022-11-15T02:13:18.430Z,100825.94
2022-11-15T02:15:55.307Z,100821.53
2022-11-15T02:18:28.674Z,100818.91
2022-11-15T02:21:12.977Z,100825.16
2022-11-15T02:24:28.245Z,100826.19
2022-11-15T02:27:30.827Z,100822.72
2022-11-15T02:30:09.440Z,100824.53
2022-11-15T02:32:45.658Z,100819.25
2022-11-15T02:35:19.812Z,100827.34
2022-11-15T02:37:52.934Z,100825.59
2022-11-15T02:40:28.921Z,100830.16
2022-11-15T02:43:18.910Z,100823.97
2022-11-15T02:45:50.399Z,100824.91
2022-11-15T02:48:20.151Z,100825.06
2022-11-15T02:50:49.190Z,100821.59
2022-11-15T02:53:17.574Z,100819.06
2022-11-15T02:55:48.173Z,100820.09
2022-11-15T02:58:53.982Z,100822.97
2022-11-15T03:01:31.725Z,100821.25
2022-11-15T03:04:11.209Z,100814.28
2022-11-15T03:06:44.108Z,100815.25
2022-11-15T03:09:17.864Z,100810.03
2022-11-15T03:11:50.520Z,100810.16
2022-11-15T03:14:24.383Z,100797.00
2022-11-15T03:17:00.628Z,100803.34
2022-11-15T03:19:34.738Z,100798.19
2022-11-15T03:22:05.164Z,100797.47
2022-11-15T03:24:35.632Z,100790.44
2022-11-15T03:27:04.315Z,100789.63
2022-11-15T03:29:36.429Z,100792.41
2022-11-15T03:32:07.558Z,100792.56
2022-11-15T03:34:42.060Z,100772.19
2022-11-15T03:37:11.970Z,100779.41
2022-11-15T03:39:40.393Z,100773.28
2022-11-15T03:42:15.602Z,100766.19
2022-11-15T03:44:48.268Z,100776.97
2022-11-15T03:47:20.223Z,100783.31
2022-11-15T03:49:53.707Z,100786.06
2022-11-15T03:52:22.876Z,100773.69
2022-11-15T03:54:54.325Z,100786.22
2022-11-15T03:57:22.770Z,100788.09
2022-11-15T03:59:50.875Z,100793.44
2022-11-15T04:02:19.041Z,100803.34
2022-11-15T04:04:47.198Z,100807.81
2022-11-15T04:07:16.770Z,100790.97
2022-11-15T04:10:02.679Z,100790.97
2022-11-15T04:12:33.704Z,100801.72
2022-11-15T04:15:09.511Z,100796.44
2022-11-15T04:17:42.477Z,100789.38
2022-11-15T04:20:27.646Z,100795.63
2022-11-15T04:23:15.902Z,100795.69
2022-11-15T04:25:44.630Z,100797.50
2022-11-15T04:28:13.111Z,100801.09
2022-11-15T04:30:41.321Z,100790.47
2022-11-15T04:33:09.452Z,100798.50
2022-11-15T04:35:37.599Z,100793.22
2022-11-15T04:38:07.543Z,100799.41
2022-11-15T04:40:36.144Z,100803.03
2022-11-15T04:43:04.409Z,100810.19
2022-11-15T04:45:32.729Z,100803.97
2022-11-15T04:48:00.868Z,100808.44
2022-11-15T04:50:29.019Z,100811.19
2022-11-15T04:52:57.173Z,100805.91
2022-11-15T04:55:26.740Z,100804.13
2022-11-15T04:58:01.669Z,100800.59
2022-11-15T05:00:31.184Z,100806.00
2022-11-15T05:03:16.935Z,100808.66
2022-11-15T05:05:45.085Z,100814.94
2022-11-15T05:08:13.184Z,100810.53
2022-11-15T05:10:42.707Z,100804.31
2022-11-15T05:13:10.859Z,100790.97
2022-11-15T05:15:39.018Z,100800.78
2022-11-15T05:18:07.211Z,100802.59
2022-11-15T05:20:35.369Z,100796.38
2022-11-15T05:23:03.562Z,100804.38
2022-11-15T05:25:31.714Z,100805.31
2022-11-15T05:28:01.205Z,100806.25
2022-11-15T05:30:29.370Z,100805.31
2022-11-15T05:32:57.577Z,100801.59
2022-11-15T05:35:31.427Z,100791.59
2022-11-15T05:37:59.604Z,100797.50
2022-11-15T05:40:28.334Z,100799.84
2022-11-15T05:42:56.547Z,100807.50
2022-11-15T05:45:27.758Z,100806.22
2022-11-15T05:47:56.986Z,100797.03
2022-11-15T05:50:25.171Z,100784.25
2022-11-15T05:52:53.654Z,100784.81
2022-11-15T05:55:22.089Z,100783.75
2022-11-15T05:57:50.262Z,100780.03
2022-11-15T06:00:19.007Z,100779.88
2022-11-15T06:02:48.533Z,100783.22
2022-11-15T06:05:16.758Z,100778.63
2022-11-15T06:07:45.240Z,100780.22
2022-11-15T06:10:13.535Z,100780.97
2022-11-15T06:12:41.690Z,100780.84
2022-11-15T06:15:10.819Z,100781.66
2022-11-15T06:17:38.975Z,100791.34
2022-11-15T06:20:09.371Z,100781.44
2022-11-15T06:22:37.550Z,100772.47
2022-11-15T06:25:06.395Z,100779.41
2022-11-15T06:27:34.652Z,100774.00
2022-11-15T06:30:02.810Z,100784.69
2022-11-15T06:32:31.765Z,100791.00
2022-11-15T06:34:59.897Z,100777.56
2022-11-15T06:37:29.405Z,100782.94
2022-11-15T06:39:57.545Z,100783.84
2022-11-15T06:42:25.644Z,100784.78
2022-11-15T06:44:53.806Z,100790.13
2022-11-15T06:47:21.942Z,100791.94
2022-11-15T06:49:50.093Z,100789.19
2022-11-15T06:52:19.436Z,100791.88
2022-11-15T06:54:48.936Z,100791.81
2022-11-15T06:57:17.082Z,100788.94
2022-11-15T06:59:45.278Z,100799.56
2022-11-15T07:02:15.300Z,100795.00
2022-11-15T07:04:43.460Z,100802.88
2022-11-15T07:07:12.008Z,100814.44
2022-11-15T07:09:40.230Z,100810.66
2022-11-15T07:12:09.823Z,100810.44
2022-11-15T07:14:37.979Z,100816.47
2022-11-15T07:17:06.576Z,100823.44
2022-11-15T07:19:34.754Z,100825.00
2022-11-15T07:22:02.921Z,100825.69
2022-11-15T07:24:31.056Z,100825.47
2022-11-15T07:26:59.314Z,100828.78
2022-11-15T07:29:28.951Z,100831.28
2022-11-15T07:31:57.274Z,100833.75
2022-11-15T07:34:25.787Z,100842.44
2022-11-15T07:36:53.990Z,100838.69
2022-11-15T07:39:22.138Z,100836.63
2022-11-15T07:41:50.478Z,100832.03
2022-11-15T07:44:18.642Z,100836.22
2022-11-15T07:46:48.175Z,100836.94
2022-11-15T07:49:16.329Z,100836.75
2022-11-15T07:51:44.460Z,100834.78
2022-11-15T07:54:12.655Z,100831.84
2022-11-15T07:56:40.799Z,100833.47
2022-11-15T07:59:08.923Z,100826.13
2022-11-15T08:01:37.135Z,100821.41
2022-11-15T08:04:06.757Z,100828.31
2022-11-15T08:06:34.880Z,100827.19
2022-11-15T08:09:03.112Z,100824.28
2022-11-15T08:11:31.559Z,100823.13
2022-11-15T08:14:00.863Z,100817.69
2022-11-15T08:16:29.043Z,100817.53
2022-11-15T08:18:57.245Z,100818.31
2022-11-15T08:21:26.781Z,100821.66
2022-11-15T08:23:54.937Z,100824.19
2022-11-15T08:26:23.227Z,100828.44
2022-11-15T08:28:51.362Z,100828.22
2022-11-15T08:31:20.339Z,100840.69
2022-11-15T08:33:48.548Z,100847.72
2022-11-15T08:36:18.388Z,100826.94
2022-11-15T08:38:47.890Z,100829.56
2022-11-15T08:41:22.116Z,100825.88
2022-11-15T08:43:50.250Z,100823.19
2022-11-15T08:46:19.351Z,100826.66
2022-11-15T08:48:47.851Z,100826.50
2022-11-15T08:51:16.110Z,100832.66
2022-11-15T08:53:44.316Z,100836.03
2022-11-15T08:56:15.552Z,100838.66
2022-11-15T08:58:44.612Z,100836.69
2022-11-15T09:01:18.933Z,100828.63
2022-11-15T09:03:47.245Z,100826.91
2022-11-15T09:06:15.881Z,100826.81
2022-11-15T09:08:48.458Z,100817.91
2022-11-15T09:11:21.189Z,100823.09
2022-11-15T09:13:49.606Z,100838.16
2022-11-15T09:16:17.789Z,100837.94
2022-11-15T09:18:46.053Z,100835.03
2022-11-15T09:21:15.108Z,100838.41
2022-11-15T09:23:43.265Z,100841.75
2022-11-15T09:26:11.455Z,100833.59
2022-11-15T09:28:42.831Z,100837.94
2022-11-15T09:31:11.220Z,100845.66
2022-11-15T09:33:39.417Z,100846.38
2022-11-15T09:36:09.800Z,100847.16
2022-11-15T09:38:38.270Z,100847.03
2022-11-15T09:41:36.369Z,100840.53
2022-11-15T09:44:25.069Z,100839.44
2022-11-15T09:47:01.469Z,100837.44
2022-11-15T09:49:31.657Z,100839.97
2022-11-15T09:52:00.116Z,100844.25
2022-11-15T09:57:25.261Z,100842.25
2022-11-15T10:03:06.484Z,100830.28
2022-11-15T10:05:39.182Z,100833.78
2022-11-15T10:08:17.426Z,100829.09
2022-11-15T10:10:48.986Z,100830.75
2022-11-15T10:13:22.093Z,100837.69
2022-11-15T10:15:53.202Z,100833.09
2022-11-15T10:18:23.110Z,100828.44
2022-11-15T10:20:52.782Z,100826.44
2022-11-15T10:23:22.634Z,100816.38
2022-11-15T10:25:53.850Z,100815.38
2022-11-15T10:28:24.747Z,100806.25
2022-11-15T10:30:56.076Z,100810.75
2022-11-15T10:33:32.886Z,100811.63
2022-11-15T10:36:26.556Z,100817.00
2022-11-15T10:38:59.478Z,100804.44
2022-11-15T10:41:48.250Z,100803.47
2022-11-15T10:44:25.332Z,100815.09
2022-11-15T10:47:23.632Z,100815.97
2022-11-15T10:50:00.720Z,100807.81
2022-11-15T10:52:29.841Z,100793.59
2022-11-15T10:55:01.872Z,100798.88
2022-11-15T10:57:33.093Z,100794.28
2022-11-15T11:00:03.056Z,100795.06
2022-11-15T11:02:38.295Z,100791.34
2022-11-15T11:05:08.536Z,100783.09
2022-11-15T11:07:37.923Z,100783.88
2022-11-15T11:10:44.560Z,100780.13
2022-11-15T11:13:17.042Z,100773.72
2022-11-15T11:15:47.747Z,100776.41
2022-11-15T11:18:24.155Z,100773.47
2022-11-15T11:20:56.248Z,100782.13
2022-11-15T11:23:44.271Z,100769.44
2022-11-15T11:26:29.022Z,100763.88
2022-11-15T11:29:04.280Z,100763.81
2022-11-15T11:31:42.598Z,100767.28
2022-11-15T11:34:17.930Z,100768.91
2022-11-15T11:36:52.484Z,100761.72
2022-11-15T11:39:29.410Z,100751.81
2022-11-15T11:42:06.141Z,100743.56
2022-11-15T11:44:45.915Z,100745.13
2022-11-15T11:47:19.618Z,100745.72
2022-11-15T11:49:53.260Z,100746.31
2022-11-15T11:52:27.844Z,100755.19
2022-11-15T11:55:03.957Z,100748.84
2022-11-15T11:57:40.616Z,100747.88
2022-11-15T12:00:18.355Z,100746.91
2022-11-15T12:02:50.367Z,100745.84
2022-11-15T12:05:24.667Z,100738.56
2022-11-15T12:07:55.467Z,100733.94
2022-11-15T12:10:26.287Z,100736.53
2022-11-15T12:13:00.950Z,100740.03
2022-11-15T12:15:31.906Z,100738.31
2022-11-15T12:18:02.233Z,100738.38
2022-11-15T12:20:36.044Z,100734.81
2022-11-15T12:23:08.935Z,100734.81
2022-11-15T12:25:46.626Z,100726.63
2022-11-15T12:28:19.135Z,100722.16
2022-11-15T12:30:52.998Z,100722.91
2022-11-15T12:33:38.431Z,100722.72
2022-11-15T12:36:12.407Z,100717.06
2022-11-15T12:38:56.826Z,100712.38
2022-11-15T12:41:26.553Z,100705.81
2022-11-15T12:43:55.027Z,100705.53
2022-11-15T12:46:35.472Z,100698.06
2022-11-15T12:49:05.275Z,100701.31
2022-11-15T12:52:06.978Z,100692.94
2022-11-15T12:55:00.225Z,100693.53
2022-11-15T12:57:40.431Z,100699.69
2022-11-15T13:00:45.819Z,100688.91
2022-11-15T13:03:28.336Z,100687.94
2022-11-15T13:06:11.691Z,100688.72
2022-11-15T13:08:51.908Z,100694.09
2022-11-15T13:11:59.605Z,100693.25
2022-11-15T13:14:49.002Z,100689.59
2022-11-15T13:17:34.368Z,100688.72
2022-11-15T13:20:18.918Z,100691.50
2022-11-15T13:22:55.847Z,100687.09
2022-11-15T13:25:46.314Z,100678.34
2022-11-15T13:28:24.460Z,100674.88
2022-11-15T13:30:55.681Z,100674.88
2022-11-15T13:33:29.367Z,100674.88
2022-11-15T13:36:02.796Z,100667.66
2022-11-15T13:38:33.018Z,100667.56
2022-11-15T13:41:12.335Z,100662.84
2022-11-15T13:43:40.860Z,100655.53
2022-11-15T13:46:15.707Z,100649.94
2022-11-15T13:48:45.150Z,100653.44
2022-11-15T13:51:20.214Z,100649.78
2022-11-15T13:53:51.016Z,100652.38
2022-11-15T13:56:20.554Z,100650.47
2022-11-15T13:58:48.985Z,100646.81
2022-11-15T14:01:21.804Z,100644.88
2022-11-15T14:03:53.952Z,100633.91
2022-11-15T14:06:23.632Z,100632.84
2022-11-15T14:09:26.835Z,100637.19
2022-11-15T14:11:56.285Z,100641.50
2022-11-15T14:14:25.481Z,100646.69
2022-11-15T14:16:56.469Z,100641.19
2022-11-15T14:19:41.850Z,100641.78
2022-11-15T14:22:11.921Z,100638.88
2022-11-15T14:24:41.052Z,100641.38
2022-11-15T14:27:27.468Z,100635.78
2022-11-15T14:29:55.837Z,100639.25
2022-11-15T14:32:26.873Z,100643.66
2022-11-15T14:34:57.750Z,100636.44
2022-11-15T14:37:27.163Z,100622.88
2022-11-15T14:39:55.625Z,100614.88
2022-11-15T14:42:25.046Z,100611.31
2022-11-15T14:44:53.414Z,100612.28
2022-11-15T14:47:21.604Z,100615.00
2022-11-15T14:49:51.108Z,100612.28
2022-11-15T14:52:34.378Z,100598.81
2022-11-15T14:55:03.370Z,100595.44
2022-11-15T14:57:32.165Z,100597.47
2022-11-15T15:00:00.299Z,100590.47
2022-11-15T15:02:29.452Z,100588.09
2022-11-15T15:05:02.071Z,100584.59
2022-11-15T15:07:30.385Z,100579.63
2022-11-15T15:10:24.612Z,100581.66
2022-11-15T15:12:47.125Z,100581.94
2022-11-15T15:15:17.041Z,100588.41
2022-11-15T15:17:45.566Z,100593.09
2022-11-15T15:20:15.159Z,100596.94
2022-11-15T15:22:43.600Z,100604.25
2022-11-15T15:25:26.846Z,100597.34
2022-11-15T15:27:55.459Z,100596.69
2022-11-15T15:30:23.618Z,100595.13
2022-11-15T15:32:52.117Z,100590.03
2022-11-15T15:35:21.834Z,100591.09
2022-11-15T15:37:51.058Z,100599.28
2022-11-15T15:40:20.997Z,100601.22
2022-11-15T15:42:49.580Z,100600.41
2022-11-15T15:45:18.397Z,100602.34
2022-11-15T15:47:47.233Z,100605.25
2022-11-15T15:50:26.984Z,100613.69
2022-11-15T15:52:57.517Z,100622.81
2022-11-15T15:55:26.007Z,100622.94
2022-11-15T15:57:54.443Z,100621.41
2022-11-15T16:00:24.433Z,100618.91
2022-11-15T16:02:52.813Z,100629.06
2022-11-15T16:05:21.305Z,100624.84
2022-11-15T16:07:50.818Z,100612.44
2022-11-15T16:10:23.226Z,100613.69
2022-11-15T16:12:51.894Z,100613.88
2022-11-15T16:15:20.337Z,100613.97
2022-11-15T16:17:51.890Z,100610.59
2022-11-15T16:20:35.830Z,100602.69
2022-11-15T16:23:08.993Z,100615.38
2022-11-15T16:25:41.882Z,100624.50
2022-11-15T16:28:21.833Z,100622.88
2022-11-15T16:30:56.440Z,100633.53
2022-11-15T16:33:25.489Z,100628.16
2022-11-15T16:35:53.735Z,100627.09
2022-11-15T16:38:23.272Z,100626.81
2022-11-15T16:40:51.421Z,100622.03
2022-11-15T16:43:19.595Z,100621.84
2022-11-15T16:45:47.847Z,100622.44
2022-11-15T16:48:23.569Z,100615.25
2022-11-15T16:50:52.136Z,100613.31
2022-11-15T16:53:20.255Z,100614.19
2022-11-15T16:55:49.783Z,100612.44
2022-11-15T16:58:17.903Z,100601.84
2022-11-15T17:00:46.213Z,100593.13
2022-11-15T17:03:14.496Z,100585.44
2022-11-15T17:05:42.633Z,100590.22
2022-11-15T17:08:10.756Z,100580.50
2022-11-15T17:10:40.855Z,100578.97
2022-11-15T17:13:13.187Z,100580.81
2022-11-15T17:15:41.376Z,100577.25
2022-11-15T17:18:11.796Z,100575.41
2022-11-15T17:20:41.451Z,100569.84
2022-11-15T17:23:14.487Z,100568.88
2022-11-15T17:25:42.958Z,100561.56
2022-11-15T17:28:12.980Z,100553.41
2022-11-15T17:30:43.293Z,100533.53
2022-11-15T17:33:11.496Z,100533.34
2022-11-15T17:35:39.661Z,100537.66
2022-11-15T17:38:07.781Z,100531.22
2022-11-15T17:40:35.920Z,100526.59
2022-11-15T17:43:06.587Z,100530.94
2022-11-15T17:45:37.509Z,100539.97
2022-11-15T17:48:05.834Z,100547.97
2022-11-15T17:50:33.965Z,100544.31
2022-11-15T17:53:02.116Z,100555.84
2022-11-15T17:55:33.309Z,100560.16
2022-11-15T17:58:01.452Z,100564.47
2022-11-15T18:00:29.621Z,100570.72
2022-11-15T18:02:59.597Z,100569.66
2022-11-15T18:05:27.720Z,100562.38
2022-11-15T18:07:55.839Z,100567.56
2022-11-15T18:10:23.968Z,100563.91
2022-11-15T18:12:52.075Z,100571.03
2022-11-15T18:15:21.375Z,100564.66
2022-11-15T18:17:49.508Z,100566.41
2022-11-15T18:20:19.529Z,100555.53
2022-11-15T18:22:47.871Z,100555.44
2022-11-15T18:25:16.259Z,100555.34
2022-11-15T18:27:44.373Z,100565.16
2022-11-15T18:30:13.383Z,100547.94
2022-11-15T18:32:41.525Z,100556.88
2022-11-15T18:35:09.917Z,100554.94
2022-11-15T18:37:39.418Z,100554.00
2022-11-15T18:40:08.848Z,100546.78
2022-11-15T18:42:36.990Z,100542.25
2022-11-15T18:45:06.322Z,100533.00
2022-11-15T18:47:34.673Z,100543.72
2022-11-15T18:50:02.810Z,100538.31
2022-11-15T18:52:30.951Z,100542.75
2022-11-15T18:55:00.495Z,100536.38
2022-11-15T18:57:28.650Z,100537.34
2022-11-15T18:59:56.795Z,100525.63
2022-11-15T19:02:24.946Z,100523.03
2022-11-15T19:04:53.075Z,100525.72
2022-11-15T19:07:21.272Z,100529.38
2022-11-15T19:09:49.542Z,100533.00
2022-11-15T19:12:19.049Z,100531.28
2022-11-15T19:14:47.163Z,100532.34
2022-11-15T19:17:15.321Z,100534.19
2022-11-15T19:19:43.467Z,100523.63
2022-11-15T19:22:11.662Z,100525.66
2022-11-15T19:24:39.810Z,100523.06
2022-11-15T19:27:07.975Z,100526.63
2022-11-15T19:29:37.494Z,100523.13
2022-11-15T19:32:06.039Z,100517.84
2022-11-15T19:34:34.225Z,100522.56
2022-11-15T19:37:03.275Z,100517.19
2022-11-15T19:39:31.409Z,100513.72
2022-11-15T19:41:59.564Z,100510.28
2022-11-15T19:44:27.696Z,100504.13
2022-11-15T19:46:57.236Z,100510.44
2022-11-15T19:49:26.065Z,100512.38
2022-11-15T19:51:54.222Z,100513.44
2022-11-15T19:54:22.348Z,100504.59
2022-11-15T19:56:51.712Z,100500.28
2022-11-15T19:59:19.830Z,100500.28
2022-11-15T20:01:47.968Z,100519.28
2022-11-15T20:04:17.585Z,100523.91
2022-11-15T20:06:45.734Z,100515.84
2022-11-15T20:09:15.521Z,100521.31
2022-11-15T20:11:43.885Z,100520.47
2022-11-15T20:14:14.655Z,100511.63
2022-11-15T20:16:43.964Z,100520.66
2022-11-15T20:19:12.437Z,100521.53
2022-11-15T20:21:42.984Z,100518.94
2022-11-15T20:24:11.236Z,100522.78
2022-11-15T20:26:39.451Z,100521.88
2022-11-15T20:29:08.491Z,100520.16
2022-11-15T20:31:36.922Z,100515.84
2022-11-15T20:34:05.104Z,100497.97
2022-11-15T20:36:33.299Z,100500.75
2022-11-15T20:39:02.903Z,100492.91
2022-11-15T20:41:31.046Z,100491.25
2022-11-15T20:43:59.517Z,100499.41
2022-11-15T20:46:27.661Z,100496.72
2022-11-15T20:48:55.769Z,100491.44
2022-11-15T20:51:23.897Z,100497.69
2022-11-15T20:53:52.815Z,100500.47
2022-11-15T20:56:23.281Z,100513.06
2022-11-15T20:58:51.784Z,100518.53
2022-11-15T21:01:23.492Z,100525.84
2022-11-15T21:03:52.890Z,100518.72
2022-11-15T21:06:21.273Z,100505.38
2022-11-15T21:09:06.785Z,100504.50
2022-11-15T21:11:54.271Z,100495.75
2022-11-15T21:14:22.592Z,100502.28
2022-11-15T21:16:50.692Z,100500.66
2022-11-15T21:19:22.665Z,100493.75
2022-11-15T21:21:53.936Z,100494.78
2022-11-15T21:24:22.260Z,100495.81
2022-11-15T21:26:51.876Z,100489.69
2022-11-15T21:29:20.119Z,100488.06
2022-11-15T21:31:49.059Z,100485.47
2022-11-15T21:34:17.491Z,100489.13
2022-11-15T21:36:45.689Z,100490.06
2022-11-15T21:39:13.975Z,100483.81
2022-11-15T21:41:42.131Z,100492.75
2022-11-15T21:44:11.637Z,100486.59
2022-11-15T21:46:39.766Z,100489.38
2022-11-15T21:49:07.907Z,100495.81
2022-11-15T21:51:36.342Z,100482.47
2022-11-15T21:54:04.501Z,100483.31
2022-11-15T21:56:32.682Z,100477.94
2022-11-15T21:59:01.189Z,100486.00
2022-11-15T22:01:48.384Z,100487.84
2022-11-15T22:04:16.621Z,100486.09
2022-11-15T22:06:44.746Z,100499.66
2022-11-15T22:09:12.900Z,100494.38
2022-11-15T22:11:41.078Z,100494.44
2022-11-15T22:14:09.467Z,100493.66
2022-11-15T22:16:39.294Z,100502.50
2022-11-15T22:19:07.549Z,100492.81
2022-11-15T22:21:35.954Z,100494.63
2022-11-15T22:24:04.433Z,100488.47
2022-11-15T22:26:32.632Z,100476.88
2022-11-15T22:29:00.915Z,100478.69
2022-11-15T22:31:29.157Z,100479.66
2022-11-15T22:33:58.756Z,100464.50
2022-11-15T22:36:32.968Z,100477.06
2022-11-15T22:39:07.208Z,100466.50
2022-11-15T22:41:35.406Z,100476.44
2022-11-15T22:44:03.597Z,100476.66
2022-11-15T22:46:31.804Z,100477.69
2022-11-15T22:49:03.503Z,100473.28
2022-11-15T22:51:33.009Z,100475.09
2022-11-15T22:54:01.229Z,100461.78
2022-11-15T22:56:29.429Z,100469.06
2022-11-15T22:58:57.633Z,100475.47
2022-11-15T23:01:25.818Z,100474.59
2022-11-15T23:03:54.106Z,100469.22
2022-11-15T23:06:23.806Z,100460.38
2022-11-15T23:08:52.082Z,100463.94
2022-11-15T23:11:37.541Z,100452.34
2022-11-15T23:14:05.775Z,100461.44
2022-11-15T23:16:36.863Z,100443.69
2022-11-15T23:19:07.057Z,100439.28
2022-11-15T23:21:55.580Z,100443.78
2022-11-15T23:24:24.082Z,100434.16
2022-11-15T23:26:54.304Z,100443.25
2022-11-15T23:29:24.986Z,100435.19
2022-11-15T23:32:11.150Z,100432.50
2022-11-15T23:34:40.776Z,100437.97
2022-11-15T23:37:12.247Z,100438.06
2022-11-15T23:39:40.469Z,100427.50
2022-11-15T23:42:09.530Z,100430.28
2022-11-15T23:44:38.209Z,100423.00
2022-11-15T23:47:06.502Z,100426.63
2022-11-15T23:49:34.699Z,100428.38
2022-11-15T23:52:02.910Z,100423.00
2022-11-15T23:54:32.517Z,100427.50
2022-11-15T23:57:00.778Z,100429.22
2022-11-15T23:59:29.004Z,100418.50
